Newport, VT

5:06 PM EDT on May 23, 2017 (GMT -0400)
Newport State

Weather History for KEFK - May, 2014

Change the Weather History Date:

Wednesday, May 14, 2014

  Actual Average Record
Temperature  
Mean Temperature 62 °F -  
Max Temperature 75 °F 66 °F 84 °F (1961)
Min Temperature 50 °F 39 °F 28 °F (1965)
Degree Days  
Heating Degree Days 3    
Growing Degree Days 12 (Base 50)    
Moisture  
Dew Point 44 °F    
Average Humidity 53    
Maximum Humidity 69    
Minimum Humidity 41    
Precipitation  
Precipitation 0.00 in - - ()
Sea Level Pressure  
Sea Level Pressure 30.18 in    
Wind  
Wind Speed 10 mph (SSE)    
Max Wind Speed 15 mph    
Max Gust Speed 23 mph    
Visibility 10 miles    
Events      
Averages and records for this station are not official NWS values.
T = Trace of Precipitation, MM = Missing Value Source: NWS Daily Summary

Daily Weather History Graph

Daily Weather History Graph

Search for Another Location

Airport or City:

Trip Planner

Search our weather history database for the weather conditions in past years. The results will help you decide how hot, cold, wet, or windy it might be!

Date:

Astronomy

May. 14, 2014 Rise Set
Actual Time 5:21 AM EDT 8:09 PM EDT
Civil Twilight 4:47 AM EDT 8:43 PM EDT
Nautical Twilight 4:04 AM EDT 9:27 PM EDT
Astronomical Twilight 3:14 AM EDT 10:17 PM EDT
Moon 8:10 PM EDT (5/14) 5:20 AM EDT (5/14)
Length of Visible Light 15h 56m
Length of Day
14h 48m
Full, 100% of the Moon is Illuminated
May 14
Full
May 14
Full
May 21
Last Quarter
May 28
New
Jun 5
First Quarter

Hourly Weather History & Observations

Time (EDT) Temp. Dew Point Humidity Pressure Visibility Wind Dir Wind Speed Gust Speed Precip Events Conditions
12:15 AM 52.0 °F 41.9 °F 69% 30.20 in 10.0 mi SSE 8.1 mph - N/A   Scattered Clouds
12:35 AM 51.8 °F 41.4 °F 68% 30.21 in 10.0 mi SSE 8.1 mph - N/A   Clear
12:55 AM 51.1 °F 41.2 °F 69% 30.20 in 10.0 mi SSE 9.2 mph - N/A   Scattered Clouds
1:15 AM 51.4 °F 40.6 °F 67% 30.20 in 10.0 mi SSE 11.5 mph 17.3 mph N/A   Scattered Clouds
1:35 AM 51.8 °F 40.3 °F 65% 30.19 in 10.0 mi South 12.7 mph - N/A   Overcast
2:15 AM 52.0 °F 39.2 °F 62% 30.20 in 10.0 mi South 11.5 mph 23.0 mph N/A   Overcast
2:35 AM 51.8 °F 39.4 °F 63% 30.19 in 10.0 mi South 11.5 mph 17.3 mph N/A   Overcast
2:55 AM 51.8 °F 39.2 °F 62% 30.18 in 10.0 mi SSE 10.4 mph 17.3 mph N/A   Overcast
3:15 AM 51.4 °F 39.2 °F 63% 30.18 in 10.0 mi SSE 11.5 mph 17.3 mph N/A   Overcast
3:35 AM 51.8 °F 39.2 °F 62% 30.19 in 10.0 mi South 6.9 mph - N/A   Overcast
3:55 AM 50.4 °F 40.1 °F 68% 30.19 in 10.0 mi South 6.9 mph - N/A   Mostly Cloudy
4:15 AM 50.5 °F 38.8 °F 64% 30.18 in 10.0 mi SSE 9.2 mph - N/A   Mostly Cloudy
4:35 AM 50.9 °F 37.8 °F 61% 30.16 in 10.0 mi SSE 15.0 mph 19.6 mph N/A   Scattered Clouds
4:55 AM 50.4 °F 36.9 °F 60% 30.17 in 10.0 mi South 13.8 mph 18.4 mph N/A   Clear
5:15 AM 50.4 °F 36.5 °F 59% 30.17 in 10.0 mi South 10.4 mph 18.4 mph N/A   Scattered Clouds
5:35 AM 50.2 °F 36.5 °F 59% 30.17 in 10.0 mi SSE 8.1 mph 18.4 mph N/A   Clear
5:55 AM 50.0 °F 36.5 °F 60% 30.17 in 10.0 mi SSE 8.1 mph - N/A   Clear
6:15 AM 50.4 °F 36.9 °F 60% 30.17 in 10.0 mi SSE 8.1 mph - N/A   Clear
7:15 AM 50.9 °F 36.9 °F 59% 30.19 in 10.0 mi SSE 11.5 mph - N/A   Overcast
7:35 AM 51.1 °F 36.3 °F 57% 30.20 in 10.0 mi South 9.2 mph 18.4 mph N/A   Overcast
7:55 AM 52.3 °F 36.9 °F 56% 30.20 in 10.0 mi South 9.2 mph 16.1 mph N/A   Overcast
8:15 AM 53.1 °F 36.9 °F 54% 30.21 in 10.0 mi SSE 11.5 mph 17.3 mph N/A   Mostly Cloudy
8:35 AM 53.6 °F 37.6 °F 55% 30.21 in 10.0 mi South 10.4 mph - N/A   Mostly Cloudy
8:55 AM 54.3 °F 39.4 °F 57% 30.22 in 10.0 mi South 4.6 mph - N/A   Mostly Cloudy
9:15 AM 55.4 °F 38.1 °F 52% 30.22 in 10.0 mi SSE 13.8 mph - N/A   Mostly Cloudy
9:35 AM 56.3 °F 39.7 °F 54% 30.21 in 10.0 mi South 10.4 mph 18.4 mph N/A   Mostly Cloudy
9:55 AM 56.3 °F 39.2 °F 53% 30.21 in 10.0 mi SSE 12.7 mph 18.4 mph N/A   Overcast
10:15 AM 57.6 °F 40.1 °F 52% 30.20 in 10.0 mi South 10.4 mph 18.4 mph N/A   Mostly Cloudy
10:35 AM 59.4 °F 41.4 °F 51% 30.20 in 10.0 mi SSE 13.8 mph 19.6 mph N/A   Scattered Clouds
10:55 AM 60.3 °F 42.8 °F 53% 30.19 in 10.0 mi SSE 13.8 mph 19.6 mph N/A   Clear
11:35 AM 61.7 °F 44.1 °F 52% 30.19 in 10.0 mi SSE 12.7 mph - N/A   Mostly Cloudy
11:55 AM 62.6 °F 45.3 °F 53% 30.19 in 10.0 mi SSE 12.7 mph - N/A   Overcast
12:15 PM 63.3 °F 46.9 °F 55% 30.19 in 10.0 mi SSE 12.7 mph - N/A   Overcast
12:55 PM 66.9 °F 49.6 °F 54% 30.19 in 10.0 mi SSE 12.7 mph - N/A   Mostly Cloudy
1:15 PM 68.2 °F 50.9 °F 54% 30.18 in 10.0 mi ESE 11.5 mph 17.3 mph N/A   Scattered Clouds
1:35 PM 69.1 °F 48.9 °F 49% 30.17 in 10.0 mi SSE 10.4 mph 17.3 mph N/A   Mostly Cloudy
1:55 PM 70.0 °F 50.9 °F 51% 30.17 in 10.0 mi SSE 11.5 mph - N/A   Overcast
2:15 PM 70.3 °F 49.6 °F 48% 30.16 in 10.0 mi SE 13.8 mph 18.4 mph N/A   Mostly Cloudy
2:35 PM 72.1 °F 50.2 °F 46% 30.16 in 10.0 mi SSE 10.4 mph 17.3 mph N/A   Mostly Cloudy
2:55 PM 72.3 °F 50.4 °F 46% 30.16 in 10.0 mi SE 9.2 mph - N/A   Mostly Cloudy
3:15 PM 73.6 °F 51.1 °F 45% 30.15 in 10.0 mi SSE 8.1 mph - N/A   Mostly Cloudy
3:35 PM 73.4 °F 52.0 °F 47% 30.15 in 10.0 mi SE 11.5 mph - N/A   Mostly Cloudy
4:15 PM 74.5 °F 49.8 °F 42% 30.14 in 10.0 mi SSE 9.2 mph - N/A   Mostly Cloudy
4:35 PM 74.3 °F 50.4 °F 43% 30.13 in 10.0 mi SE 9.2 mph - N/A   Scattered Clouds
4:55 PM 73.0 °F 49.6 °F 44% 30.13 in 10.0 mi SE 6.9 mph - N/A   Scattered Clouds
5:15 PM 73.2 °F 50.2 °F 44% 30.13 in 10.0 mi ESE 9.2 mph - N/A   Overcast
5:35 PM 72.5 °F 50.0 °F 45% 30.13 in 10.0 mi ESE 11.5 mph - N/A   Scattered Clouds
5:55 PM 72.9 °F 48.9 °F 43% 30.13 in 10.0 mi SSE 10.4 mph - N/A   Clear
6:15 PM 72.0 °F 48.2 °F 43% 30.14 in 10.0 mi SSE 8.1 mph - N/A   Mostly Cloudy
6:35 PM 71.6 °F 48.2 °F 43% 30.14 in 10.0 mi Calm Calm - N/A   Light Drizzle
6:55 PM 71.2 °F 47.8 °F 43% 30.15 in 10.0 mi Calm Calm - N/A   Overcast
7:15 PM 67.1 °F 56.1 °F 68% 30.15 in 10.0 mi Calm Calm - N/A   Overcast
7:35 PM 68.4 °F 53.4 °F 59% 30.14 in 10.0 mi SE 5.8 mph - N/A   Mostly Cloudy
7:55 PM 68.9 °F 47.3 °F 46% 30.15 in 10.0 mi SSE 6.9 mph - N/A   Scattered Clouds
8:15 PM 69.3 °F 45.5 °F 42% 30.15 in 10.0 mi SSE 9.2 mph - N/A   Mostly Cloudy
8:35 PM 69.1 °F 44.8 °F 42% 30.16 in 10.0 mi SSE 5.8 mph - N/A   Overcast
8:55 PM 68.9 °F 44.1 °F 41% 30.16 in 10.0 mi South 9.2 mph - N/A   Mostly Cloudy
9:15 PM 68.5 °F 43.7 °F 41% 30.17 in 10.0 mi SSE 9.2 mph - N/A   Mostly Cloudy
9:35 PM 68.0 °F 43.7 °F 41% 30.17 in 10.0 mi SSE 9.2 mph 16.1 mph N/A   Overcast
9:55 PM 67.1 °F 43.7 °F 43% 30.18 in 10.0 mi SSE 9.2 mph - N/A   Overcast
10:15 PM 66.0 °F 44.1 °F 45% 30.18 in 10.0 mi SSE 12.7 mph 17.3 mph N/A   Mostly Cloudy
10:35 PM 64.9 °F 44.2 °F 47% 30.18 in 10.0 mi SSE 12.7 mph - N/A   Scattered Clouds
10:55 PM 65.1 °F 44.1 °F 46% 30.18 in 10.0 mi South 12.7 mph - N/A   Clear
11:15 PM 63.5 °F 44.6 °F 50% 30.18 in 10.0 mi SSE 13.8 mph - N/A   Clear
11:35 PM 62.8 °F 45.0 °F 52% 30.18 in 10.0 mi SSE 11.5 mph - N/A   Clear
11:55 PM 62.2 °F 45.3 °F 54% 30.18 in 10.0 mi SSE 11.5 mph - N/A   Clear